sensor_id;sensor_type;location;lat;lon;timestamp;temperature;humidity
63013;DHT22;62113;45.624;11.700;2024-01-25T00:00:50;6.60;60.00
63013;DHT22;62113;45.624;11.700;2024-01-25T00:03:15;6.70;60.00
63013;DHT22;62113;45.624;11.700;2024-01-25T00:05:41;6.70;59.70
63013;DHT22;62113;45.624;11.700;2024-01-25T00:08:06;6.70;59.70
63013;DHT22;62113;45.624;11.700;2024-01-25T00:10:32;6.60;59.90
63013;DHT22;62113;45.624;11.700;2024-01-25T00:12:58;6.60;59.90
63013;DHT22;62113;45.624;11.700;2024-01-25T00:15:23;6.60;59.90
63013;DHT22;62113;45.624;11.700;2024-01-25T00:17:49;6.50;60.00
63013;DHT22;62113;45.624;11.700;2024-01-25T00:20:15;6.50;59.80
63013;DHT22;62113;45.624;11.700;2024-01-25T00:22:41;6.50;59.90
63013;DHT22;62113;45.624;11.700;2024-01-25T00:25:07;6.50;59.70
63013;DHT22;62113;45.624;11.700;2024-01-25T00:27:33;6.50;59.80
63013;DHT22;62113;45.624;11.700;2024-01-25T00:29:59;6.40;60.10
63013;DHT22;62113;45.624;11.700;2024-01-25T00:32:24;6.50;59.90
63013;DHT22;62113;45.624;11.700;2024-01-25T00:34:50;6.40;60.00
63013;DHT22;62113;45.624;11.700;2024-01-25T00:37:16;6.30;60.20
63013;DHT22;62113;45.624;11.700;2024-01-25T00:39:42;6.30;60.20
63013;DHT22;62113;45.624;11.700;2024-01-25T00:42:12;6.30;60.30
63013;DHT22;62113;45.624;11.700;2024-01-25T00:44:38;6.30;60.30
63013;DHT22;62113;45.624;11.700;2024-01-25T00:47:04;6.30;60.40
63013;DHT22;62113;45.624;11.700;2024-01-25T00:49:29;6.40;60.60
63013;DHT22;62113;45.624;11.700;2024-01-25T00:52:04;6.30;60.50
63013;DHT22;62113;45.624;11.700;2024-01-25T00:54:30;6.30;60.40
63013;DHT22;62113;45.624;11.700;2024-01-25T00:56:56;6.30;60.50
63013;DHT22;62113;45.624;11.700;2024-01-25T00:59:22;6.40;60.30
63013;DHT22;62113;45.624;11.700;2024-01-25T01:01:48;6.40;60.10
63013;DHT22;62113;45.624;11.700;2024-01-25T01:04:17;6.30;60.10
63013;DHT22;62113;45.624;11.700;2024-01-25T01:06:43;6.30;60.30
63013;DHT22;62113;45.624;11.700;2024-01-25T01:09:08;6.30;60.50
63013;DHT22;62113;45.624;11.700;2024-01-25T01:11:35;6.30;60.80
63013;DHT22;62113;45.624;11.700;2024-01-25T01:14:01;6.30;60.70
63013;DHT22;62113;45.624;11.700;2024-01-25T01:16:27;6.30;60.70
63013;DHT22;62113;45.624;11.700;2024-01-25T01:18:54;6.30;60.30
63013;DHT22;62113;45.624;11.700;2024-01-25T01:21:19;6.30;60.50
63013;DHT22;62113;45.624;11.700;2024-01-25T01:23:46;6.30;60.20
63013;DHT22;62113;45.624;11.700;2024-01-25T01:26:12;6.20;60.20
63013;DHT22;62113;45.624;11.700;2024-01-25T01:28:37;6.20;60.20
63013;DHT22;62113;45.624;11.700;2024-01-25T01:31:03;6.20;60.40
63013;DHT22;62113;45.624;11.700;2024-01-25T01:33:28;6.20;60.70
63013;DHT22;62113;45.624;11.700;2024-01-25T01:35:54;6.20;60.70
63013;DHT22;62113;45.624;11.700;2024-01-25T01:38:20;6.20;60.70
63013;DHT22;62113;45.624;11.700;2024-01-25T01:40:45;6.20;61.00
63013;DHT22;62113;45.624;11.700;2024-01-25T01:43:21;6.20;60.90
63013;DHT22;62113;45.624;11.700;2024-01-25T01:45:48;6.20;60.80
63013;DHT22;62113;45.624;11.700;2024-01-25T01:48:15;6.20;60.80
63013;DHT22;62113;45.624;11.700;2024-01-25T01:50:42;6.20;60.90
63013;DHT22;62113;45.624;11.700;2024-01-25T01:53:08;6.20;60.70
63013;DHT22;62113;45.624;11.700;2024-01-25T01:55:34;6.20;61.00
63013;DHT22;62113;45.624;11.700;2024-01-25T01:58:00;6.20;60.90
63013;DHT22;62113;45.624;11.700;2024-01-25T02:00:26;6.10;60.80
63013;DHT22;62113;45.624;11.700;2024-01-25T02:02:54;6.20;61.10
63013;DHT22;62113;45.624;11.700;2024-01-25T02:05:20;6.10;61.20
63013;DHT22;62113;45.624;11.700;2024-01-25T02:07:45;6.20;61.10
63013;DHT22;62113;45.624;11.700;2024-01-25T02:10:11;6.10;61.10
63013;DHT22;62113;45.624;11.700;2024-01-25T02:12:38;6.10;61.10
63013;DHT22;62113;45.624;11.700;2024-01-25T02:15:03;6.20;61.00
63013;DHT22;62113;45.624;11.700;2024-01-25T02:17:30;6.10;61.10
63013;DHT22;62113;45.624;11.700;2024-01-25T02:19:56;6.10;61.30
63013;DHT22;62113;45.624;11.700;2024-01-25T02:22:21;6.10;61.40
63013;DHT22;62113;45.624;11.700;2024-01-25T02:24:47;6.10;61.20
63013;DHT22;62113;45.624;11.700;2024-01-25T02:27:12;6.10;61.50
63013;DHT22;62113;45.624;11.700;2024-01-25T02:29:38;6.00;61.50
63013;DHT22;62113;45.624;11.700;2024-01-25T02:32:04;6.00;61.80
63013;DHT22;62113;45.624;11.700;2024-01-25T02:34:30;6.00;61.70
63013;DHT22;62113;45.624;11.700;2024-01-25T02:36:55;6.00;61.60
63013;DHT22;62113;45.624;11.700;2024-01-25T02:39:21;6.00;61.80
63013;DHT22;62113;45.624;11.700;2024-01-25T02:41:46;6.00;62.10
63013;DHT22;62113;45.624;11.700;2024-01-25T02:44:13;6.00;62.10
63013;DHT22;62113;45.624;11.700;2024-01-25T02:46:38;6.00;62.00
63013;DHT22;62113;45.624;11.700;2024-01-25T02:49:04;6.00;62.20
63013;DHT22;62113;45.624;11.700;2024-01-25T02:51:30;6.00;61.90
63013;DHT22;62113;45.624;11.700;2024-01-25T02:53:55;6.10;61.80
63013;DHT22;62113;45.624;11.700;2024-01-25T02:56:21;6.00;62.00
63013;DHT22;62113;45.624;11.700;2024-01-25T02:58:47;6.10;61.90
63013;DHT22;62113;45.624;11.700;2024-01-25T03:01:12;6.00;61.80
63013;DHT22;62113;45.624;11.700;2024-01-25T03:03:38;6.10;62.00
63013;DHT22;62113;45.624;11.700;2024-01-25T03:06:06;6.00;61.80
63013;DHT22;62113;45.624;11.700;2024-01-25T03:08:31;6.10;61.80
63013;DHT22;62113;45.624;11.700;2024-01-25T03:10:57;6.10;61.90
63013;DHT22;62113;45.624;11.700;2024-01-25T03:13:23;6.10;61.90
63013;DHT22;62113;45.624;11.700;2024-01-25T03:15:48;6.00;61.80
63013;DHT22;62113;45.624;11.700;2024-01-25T03:18:14;6.00;61.80
63013;DHT22;62113;45.624;11.700;2024-01-25T03:20:39;6.00;61.90
63013;DHT22;62113;45.624;11.700;2024-01-25T03:23:05;6.00;61.60
63013;DHT22;62113;45.624;11.700;2024-01-25T03:25:31;6.00;61.50
63013;DHT22;62113;45.624;11.700;2024-01-25T03:27:57;6.00;61.40
63013;DHT22;62113;45.624;11.700;2024-01-25T03:30:22;6.00;61.60
63013;DHT22;62113;45.624;11.700;2024-01-25T03:32:48;6.00;61.50
63013;DHT22;62113;45.624;11.700;2024-01-25T03:35:14;5.90;61.20
63013;DHT22;62113;45.624;11.700;2024-01-25T03:37:39;5.80;61.20
63013;DHT22;62113;45.624;11.700;2024-01-25T03:40:05;5.80;61.60
63013;DHT22;62113;45.624;11.700;2024-01-25T03:42:31;5.70;61.80
63013;DHT22;62113;45.624;11.700;2024-01-25T03:44:57;5.70;61.90
63013;DHT22;62113;45.624;11.700;2024-01-25T03:47:22;5.80;61.90
63013;DHT22;62113;45.624;11.700;2024-01-25T03:49:48;5.80;61.80
63013;DHT22;62113;45.624;11.700;2024-01-25T03:52:14;5.80;61.50
63013;DHT22;62113;45.624;11.700;2024-01-25T03:54:40;5.70;61.60
63013;DHT22;62113;45.624;11.700;2024-01-25T03:57:05;5.70;61.70
63013;DHT22;62113;45.624;11.700;2024-01-25T03:59:31;5.70;61.90
63013;DHT22;62113;45.624;11.700;2024-01-25T04:01:57;5.70;61.90
63013;DHT22;62113;45.624;11.700;2024-01-25T04:04:22;5.70;61.90
63013;DHT22;62113;45.624;11.700;2024-01-25T04:06:48;5.70;61.90
63013;DHT22;62113;45.624;11.700;2024-01-25T04:09:14;5.70;61.70
63013;DHT22;62113;45.624;11.700;2024-01-25T04:11:43;5.70;61.80
63013;DHT22;62113;45.624;11.700;2024-01-25T04:14:08;5.70;61.90
63013;DHT22;62113;45.624;11.700;2024-01-25T04:16:34;5.70;61.90
63013;DHT22;62113;45.624;11.700;2024-01-25T04:19:00;5.70;62.20
63013;DHT22;62113;45.624;11.700;2024-01-25T04:21:26;5.70;61.90
63013;DHT22;62113;45.624;11.700;2024-01-25T04:23:52;5.70;61.80
63013;DHT22;62113;45.624;11.700;2024-01-25T04:26:18;5.70;61.70
63013;DHT22;62113;45.624;11.700;2024-01-25T04:28:43;5.70;62.20
63013;DHT22;62113;45.624;11.700;2024-01-25T04:31:09;5.70;62.20
63013;DHT22;62113;45.624;11.700;2024-01-25T04:33:35;5.70;62.30
63013;DHT22;62113;45.624;11.700;2024-01-25T04:36:01;5.70;62.50
63013;DHT22;62113;45.624;11.700;2024-01-25T04:38:27;5.70;62.50
63013;DHT22;62113;45.624;11.700;2024-01-25T04:40:52;5.60;62.70
63013;DHT22;62113;45.624;11.700;2024-01-25T04:43:18;5.70;62.30
63013;DHT22;62113;45.624;11.700;2024-01-25T04:45:43;5.60;62.30
63013;DHT22;62113;45.624;11.700;2024-01-25T04:48:09;5.70;62.40
63013;DHT22;62113;45.624;11.700;2024-01-25T04:50:34;5.70;62.60
63013;DHT22;62113;45.624;11.700;2024-01-25T04:53:03;5.70;62.90
63013;DHT22;62113;45.624;11.700;2024-01-25T04:55:29;5.70;62.60
63013;DHT22;62113;45.624;11.700;2024-01-25T04:57:54;5.70;62.40
63013;DHT22;62113;45.624;11.700;2024-01-25T05:00:23;5.60;62.70
63013;DHT22;62113;45.624;11.700;2024-01-25T05:02:49;5.70;62.60
63013;DHT22;62113;45.624;11.700;2024-01-25T05:05:14;5.70;62.60
63013;DHT22;62113;45.624;11.700;2024-01-25T05:07:40;5.70;62.50
63013;DHT22;62113;45.624;11.700;2024-01-25T05:10:06;5.70;62.50
63013;DHT22;62113;45.624;11.700;2024-01-25T05:12:33;5.70;62.80
63013;DHT22;62113;45.624;11.700;2024-01-25T05:14:59;5.60;63.00
63013;DHT22;62113;45.624;11.700;2024-01-25T05:17:24;5.60;62.70
63013;DHT22;62113;45.624;11.700;2024-01-25T05:19:50;5.60;62.60
63013;DHT22;62113;45.624;11.700;2024-01-25T05:22:16;5.70;63.00
63013;DHT22;62113;45.624;11.700;2024-01-25T05:24:42;5.60;63.00
63013;DHT22;62113;45.624;11.700;2024-01-25T05:27:08;5.60;62.70
63013;DHT22;62113;45.624;11.700;2024-01-25T05:29:33;5.60;63.00
63013;DHT22;62113;45.624;11.700;2024-01-25T05:31:59;5.60;63.00
63013;DHT22;62113;45.624;11.700;2024-01-25T05:34:24;5.60;63.10
63013;DHT22;62113;45.624;11.700;2024-01-25T05:36:50;5.60;62.80
63013;DHT22;62113;45.624;11.700;2024-01-25T05:39:16;5.60;62.80
63013;DHT22;62113;45.624;11.700;2024-01-25T05:41:42;5.50;63.20
63013;DHT22;62113;45.624;11.700;2024-01-25T05:44:11;5.50;63.20
63013;DHT22;62113;45.624;11.700;2024-01-25T05:46:36;5.50;63.00
63013;DHT22;62113;45.624;11.700;2024-01-25T05:49:02;5.50;63.50
63013;DHT22;62113;45.624;11.700;2024-01-25T05:51:28;5.40;63.10
63013;DHT22;62113;45.624;11.700;2024-01-25T05:53:54;5.40;63.50
63013;DHT22;62113;45.624;11.700;2024-01-25T05:56:19;5.40;63.60
63013;DHT22;62113;45.624;11.700;2024-01-25T05:58:45;5.40;63.30
63013;DHT22;62113;45.624;11.700;2024-01-25T06:01:11;5.40;63.00
63013;DHT22;62113;45.624;11.700;2024-01-25T06:03:36;5.50;63.00
63013;DHT22;62113;45.624;11.700;2024-01-25T06:06:02;5.50;63.50
63013;DHT22;62113;45.624;11.700;2024-01-25T06:08:28;5.40;63.20
63013;DHT22;62113;45.624;11.700;2024-01-25T06:10:53;5.40;63.20
63013;DHT22;62113;45.624;11.700;2024-01-25T06:13:19;5.40;63.10
63013;DHT22;62113;45.624;11.700;2024-01-25T06:15:44;5.50;63.20
63013;DHT22;62113;45.624;11.700;2024-01-25T06:18:10;5.50;63.30
63013;DHT22;62113;45.624;11.700;2024-01-25T06:20:35;5.50;63.50
63013;DHT22;62113;45.624;11.700;2024-01-25T06:23:01;5.60;63.50
63013;DHT22;62113;45.624;11.700;2024-01-25T06:25:27;5.60;63.30
63013;DHT22;62113;45.624;11.700;2024-01-25T06:27:56;5.60;63.40
63013;DHT22;62113;45.624;11.700;2024-01-25T06:30:22;5.60;63.20
63013;DHT22;62113;45.624;11.700;2024-01-25T06:32:48;5.60;63.20
63013;DHT22;62113;45.624;11.700;2024-01-25T06:35:14;5.60;63.10
63013;DHT22;62113;45.624;11.700;2024-01-25T06:37:40;5.70;62.90
63013;DHT22;62113;45.624;11.700;2024-01-25T06:40:06;5.70;62.90
63013;DHT22;62113;45.624;11.700;2024-01-25T06:42:32;5.70;63.10
63013;DHT22;62113;45.624;11.700;2024-01-25T06:44:57;5.70;63.00
63013;DHT22;62113;45.624;11.700;2024-01-25T06:47:23;5.70;63.00
63013;DHT22;62113;45.624;11.700;2024-01-25T06:49:48;5.70;63.40
63013;DHT22;62113;45.624;11.700;2024-01-25T06:52:17;5.70;63.30
63013;DHT22;62113;45.624;11.700;2024-01-25T06:54:43;5.70;63.60
63013;DHT22;62113;45.624;11.700;2024-01-25T06:57:08;5.70;63.60
63013;DHT22;62113;45.624;11.700;2024-01-25T06:59:34;5.70;64.00
63013;DHT22;62113;45.624;11.700;2024-01-25T07:02:00;5.70;64.20
63013;DHT22;62113;45.624;11.700;2024-01-25T07:04:28;5.70;63.50
63013;DHT22;62113;45.624;11.700;2024-01-25T07:06:53;5.70;63.70
63013;DHT22;62113;45.624;11.700;2024-01-25T07:09:19;5.80;63.50
63013;DHT22;62113;45.624;11.700;2024-01-25T07:11:45;5.80;63.30
63013;DHT22;62113;45.624;11.700;2024-01-25T07:14:10;5.90;63.60
63013;DHT22;62113;45.624;11.700;2024-01-25T07:16:36;5.90;64.00
63013;DHT22;62113;45.624;11.700;2024-01-25T07:19:02;6.00;63.90
63013;DHT22;62113;45.624;11.700;2024-01-25T07:21:28;6.10;63.60
63013;DHT22;62113;45.624;11.700;2024-01-25T07:23:59;6.10;63.60
63013;DHT22;62113;45.624;11.700;2024-01-25T07:26:24;6.20;63.40
63013;DHT22;62113;45.624;11.700;2024-01-25T07:28:50;6.20;63.20
63013;DHT22;62113;45.624;11.700;2024-01-25T07:31:19;6.30;63.30
63013;DHT22;62113;45.624;11.700;2024-01-25T07:33:45;6.40;63.50
63013;DHT22;62113;45.624;11.700;2024-01-25T07:36:11;6.50;63.10
63013;DHT22;62113;45.624;11.700;2024-01-25T07:38:36;6.60;63.30
63013;DHT22;62113;45.624;11.700;2024-01-25T07:41:02;6.60;63.40
63013;DHT22;62113;45.624;11.700;2024-01-25T07:43:28;6.70;63.50
63013;DHT22;62113;45.624;11.700;2024-01-25T07:45:53;6.80;63.80
63013;DHT22;62113;45.624;11.700;2024-01-25T07:48:19;7.00;63.90
63013;DHT22;62113;45.624;11.700;2024-01-25T07:50:44;7.10;63.60
63013;DHT22;62113;45.624;11.700;2024-01-25T07:53:10;7.30;63.60
63013;DHT22;62113;45.624;11.700;2024-01-25T07:55:37;7.40;63.40
63013;DHT22;62113;45.624;11.700;2024-01-25T07:58:03;7.60;63.50
63013;DHT22;62113;45.624;11.700;2024-01-25T08:00:28;7.70;63.30
63013;DHT22;62113;45.624;11.700;2024-01-25T08:02:54;7.90;62.90
63013;DHT22;62113;45.624;11.700;2024-01-25T08:05:20;8.10;62.80
63013;DHT22;62113;45.624;11.700;2024-01-25T08:07:46;8.20;62.60
63013;DHT22;62113;45.624;11.700;2024-01-25T08:10:12;8.40;62.30
63013;DHT22;62113;45.624;11.700;2024-01-25T08:12:38;8.60;62.30
63013;DHT22;62113;45.624;11.700;2024-01-25T08:15:06;8.80;62.20
63013;DHT22;62113;45.624;11.700;2024-01-25T08:17:31;9.00;61.70
63013;DHT22;62113;45.624;11.700;2024-01-25T08:19:57;9.20;61.40
63013;DHT22;62113;45.624;11.700;2024-01-25T08:22:22;9.30;61.50
63013;DHT22;62113;45.624;11.700;2024-01-25T08:24:48;9.60;60.90
63013;DHT22;62113;45.624;11.700;2024-01-25T08:27:14;9.70;60.80
63013;DHT22;62113;45.624;11.700;2024-01-25T08:29:39;9.80;60.70
63013;DHT22;62113;45.624;11.700;2024-01-25T08:32:06;10.00;59.60
63013;DHT22;62113;45.624;11.700;2024-01-25T08:34:32;10.10;59.80
63013;DHT22;62113;45.624;11.700;2024-01-25T08:36:57;10.20;59.70
63013;DHT22;62113;45.624;11.700;2024-01-25T08:39:23;10.30;58.80
63013;DHT22;62113;45.624;11.700;2024-01-25T08:41:48;10.40;58.70
63013;DHT22;62113;45.624;11.700;2024-01-25T08:44:15;10.50;59.60
63013;DHT22;62113;45.624;11.700;2024-01-25T08:46:41;10.70;59.30
63013;DHT22;62113;45.624;11.700;2024-01-25T08:49:08;10.70;59.40
63013;DHT22;62113;45.624;11.700;2024-01-25T08:51:35;10.80;58.80
63013;DHT22;62113;45.624;11.700;2024-01-25T08:54:01;10.80;58.50
63013;DHT22;62113;45.624;11.700;2024-01-25T08:56:29;10.70;59.20
63013;DHT22;62113;45.624;11.700;2024-01-25T08:58:54;10.80;60.40
63013;DHT22;62113;45.624;11.700;2024-01-25T09:01:20;10.90;59.60
63013;DHT22;62113;45.624;11.700;2024-01-25T09:03:46;11.00;59.60
63013;DHT22;62113;45.624;11.700;2024-01-25T09:06:12;11.10;59.50
63013;DHT22;62113;45.624;11.700;2024-01-25T09:08:39;11.20;59.00
63013;DHT22;62113;45.624;11.700;2024-01-25T09:11:05;11.20;59.20
63013;DHT22;62113;45.624;11.700;2024-01-25T09:13:30;11.40;59.50
63013;DHT22;62113;45.624;11.700;2024-01-25T09:15:57;11.50;59.10
63013;DHT22;62113;45.624;11.700;2024-01-25T09:18:23;11.70;58.90
63013;DHT22;62113;45.624;11.700;2024-01-25T09:20:48;11.80;58.90
63013;DHT22;62113;45.624;11.700;2024-01-25T09:23:14;11.80;58.60
63013;DHT22;62113;45.624;11.700;2024-01-25T09:25:42;12.00;58.30
63013;DHT22;62113;45.624;11.700;2024-01-25T09:28:08;12.20;58.70
63013;DHT22;62113;45.624;11.700;2024-01-25T09:30:33;12.70;58.10
63013;DHT22;62113;45.624;11.700;2024-01-25T09:32:59;13.00;57.60
63013;DHT22;62113;45.624;11.700;2024-01-25T09:35:25;13.40;57.40
63013;DHT22;62113;45.624;11.700;2024-01-25T09:37:50;13.80;56.10
63013;DHT22;62113;45.624;11.700;2024-01-25T09:40:18;14.10;54.90
63013;DHT22;62113;45.624;11.700;2024-01-25T09:42:47;14.50;55.40
63013;DHT22;62113;45.624;11.700;2024-01-25T09:45:16;15.20;53.60
63013;DHT22;62113;45.624;11.700;2024-01-25T09:47:43;16.10;51.50
63013;DHT22;62113;45.624;11.700;2024-01-25T09:50:09;16.70;51.00
63013;DHT22;62113;45.624;11.700;2024-01-25T09:52:36;17.40;48.50
63013;DHT22;62113;45.624;11.700;2024-01-25T09:55:05;17.80;47.00
63013;DHT22;62113;45.624;11.700;2024-01-25T09:57:32;18.20;47.00
63013;DHT22;62113;45.624;11.700;2024-01-25T10:00:00;18.30;48.00
63013;DHT22;62113;45.624;11.700;2024-01-25T10:02:26;18.40;47.50
63013;DHT22;62113;45.624;11.700;2024-01-25T10:04:52;18.40;45.60
63013;DHT22;62113;45.624;11.700;2024-01-25T10:07:35;18.40;48.10
63013;DHT22;62113;45.624;11.700;2024-01-25T10:10:02;18.30;46.50
63013;DHT22;62113;45.624;11.700;2024-01-25T10:12:27;18.20;47.00
63013;DHT22;62113;45.624;11.700;2024-01-25T10:14:53;18.20;44.30
63013;DHT22;62113;45.624;11.700;2024-01-25T10:17:18;18.00;44.80
63013;DHT22;62113;45.624;11.700;2024-01-25T10:19:44;18.00;44.70
63013;DHT22;62113;45.624;11.700;2024-01-25T10:22:10;17.90;44.40
63013;DHT22;62113;45.624;11.700;2024-01-25T10:24:39;17.80;45.00
63013;DHT22;62113;45.624;11.700;2024-01-25T10:27:05;17.70;45.80
63013;DHT22;62113;45.624;11.700;2024-01-25T10:29:31;17.60;45.30
63013;DHT22;62113;45.624;11.700;2024-01-25T10:31:57;17.50;47.10
63013;DHT22;62113;45.624;11.700;2024-01-25T10:34:23;17.40;46.10
63013;DHT22;62113;45.624;11.700;2024-01-25T10:36:51;17.30;45.80
63013;DHT22;62113;45.624;11.700;2024-01-25T10:39:17;17.20;46.20
63013;DHT22;62113;45.624;11.700;2024-01-25T10:41:45;17.20;46.80
63013;DHT22;62113;45.624;11.700;2024-01-25T10:44:18;17.20;46.70
63013;DHT22;62113;45.624;11.700;2024-01-25T10:46:47;17.10;46.80
63013;DHT22;62113;45.624;11.700;2024-01-25T10:49:13;17.10;47.20
63013;DHT22;62113;45.624;11.700;2024-01-25T10:51:40;17.10;47.40
63013;DHT22;62113;45.624;11.700;2024-01-25T10:54:07;17.10;47.10
63013;DHT22;62113;45.624;11.700;2024-01-25T10:56:35;17.00;47.70
63013;DHT22;62113;45.624;11.700;2024-01-25T10:59:01;17.10;47.80
63013;DHT22;62113;45.624;11.700;2024-01-25T11:01:29;17.10;47.50
63013;DHT22;62113;45.624;11.700;2024-01-25T11:03:55;17.10;47.60
63013;DHT22;62113;45.624;11.700;2024-01-25T11:06:22;17.10;46.90
63013;DHT22;62113;45.624;11.700;2024-01-25T11:08:48;17.10;47.20
63013;DHT22;62113;45.624;11.700;2024-01-25T11:11:14;17.10;47.00
63013;DHT22;62113;45.624;11.700;2024-01-25T11:13:43;17.10;47.40
63013;DHT22;62113;45.624;11.700;2024-01-25T11:16:27;17.20;47.30
63013;DHT22;62113;45.624;11.700;2024-01-25T11:18:57;17.20;47.60
63013;DHT22;62113;45.624;11.700;2024-01-25T11:21:45;17.20;47.50
63013;DHT22;62113;45.624;11.700;2024-01-25T11:24:21;17.20;47.40
63013;DHT22;62113;45.624;11.700;2024-01-25T11:26:47;17.30;47.20
63013;DHT22;62113;45.624;11.700;2024-01-25T11:29:14;17.30;47.10
63013;DHT22;62113;45.624;11.700;2024-01-25T11:31:46;17.30;46.90
63013;DHT22;62113;45.624;11.700;2024-01-25T11:34:13;17.30;46.70
63013;DHT22;62113;45.624;11.700;2024-01-25T11:36:40;17.30;46.60
63013;DHT22;62113;45.624;11.700;2024-01-25T11:39:10;17.30;45.80
63013;DHT22;62113;45.624;11.700;2024-01-25T11:41:37;17.20;45.00
63013;DHT22;62113;45.624;11.700;2024-01-25T11:44:03;17.30;45.40
63013;DHT22;62113;45.624;11.700;2024-01-25T11:46:30;17.30;45.80
63013;DHT22;62113;45.624;11.700;2024-01-25T11:48:57;17.30;45.90
63013;DHT22;62113;45.624;11.700;2024-01-25T11:51:22;17.20;45.10
63013;DHT22;62113;45.624;11.700;2024-01-25T11:53:48;17.20;44.60
63013;DHT22;62113;45.624;11.700;2024-01-25T11:56:19;17.20;44.90
63013;DHT22;62113;45.624;11.700;2024-01-25T11:58:46;17.20;44.20
63013;DHT22;62113;45.624;11.700;2024-01-25T12:01:12;17.20;45.30
63013;DHT22;62113;45.624;11.700;2024-01-25T12:03:40;17.20;45.80
63013;DHT22;62113;45.624;11.700;2024-01-25T12:06:06;17.20;45.80
63013;DHT22;62113;45.624;11.700;2024-01-25T12:08:32;17.20;46.00
63013;DHT22;62113;45.624;11.700;2024-01-25T12:11:08;17.30;45.80
63013;DHT22;62113;45.624;11.700;2024-01-25T12:13:44;17.30;45.70
63013;DHT22;62113;45.624;11.700;2024-01-25T12:16:10;17.30;45.20
63013;DHT22;62113;45.624;11.700;2024-01-25T12:18:37;17.30;45.50
63013;DHT22;62113;45.624;11.700;2024-01-25T12:21:04;17.30;45.80
63013;DHT22;62113;45.624;11.700;2024-01-25T12:23:36;17.30;45.20
63013;DHT22;62113;45.624;11.700;2024-01-25T12:26:04;17.30;44.70
63013;DHT22;62113;45.624;11.700;2024-01-25T12:28:31;17.30;45.40
63013;DHT22;62113;45.624;11.700;2024-01-25T12:31:01;17.30;45.70
63013;DHT22;62113;45.624;11.700;2024-01-25T12:33:29;17.40;45.90
63013;DHT22;62113;45.624;11.700;2024-01-25T12:35:55;17.50;45.90
63013;DHT22;62113;45.624;11.700;2024-01-25T12:38:22;17.40;44.30
63013;DHT22;62113;45.624;11.700;2024-01-25T12:40:48;17.40;45.10
63013;DHT22;62113;45.624;11.700;2024-01-25T12:43:15;17.40;45.50
63013;DHT22;62113;45.624;11.700;2024-01-25T12:45:41;17.40;45.70
63013;DHT22;62113;45.624;11.700;2024-01-25T12:48:07;17.30;45.80
63013;DHT22;62113;45.624;11.700;2024-01-25T12:50:33;17.40;45.80
63013;DHT22;62113;45.624;11.700;2024-01-25T12:53:00;17.40;45.90
63013;DHT22;62113;45.624;11.700;2024-01-25T12:55:25;17.40;45.90
63013;DHT22;62113;45.624;11.700;2024-01-25T12:57:51;17.40;45.80
63013;DHT22;62113;45.624;11.700;2024-01-25T13:00:17;17.30;45.70
63013;DHT22;62113;45.624;11.700;2024-01-25T13:02:42;17.30;45.90
63013;DHT22;62113;45.624;11.700;2024-01-25T13:05:08;17.30;45.80
63013;DHT22;62113;45.624;11.700;2024-01-25T13:07:34;17.20;45.50
63013;DHT22;62113;45.624;11.700;2024-01-25T13:09:59;17.20;45.90
63013;DHT22;62113;45.624;11.700;2024-01-25T13:12:25;17.20;45.30
63013;DHT22;62113;45.624;11.700;2024-01-25T13:14:50;17.20;46.20
63013;DHT22;62113;45.624;11.700;2024-01-25T13:17:16;17.20;46.30
63013;DHT22;62113;45.624;11.700;2024-01-25T13:19:41;17.20;46.20
63013;DHT22;62113;45.624;11.700;2024-01-25T13:22:07;17.20;46.20
63013;DHT22;62113;45.624;11.700;2024-01-25T13:24:33;17.10;46.30
63013;DHT22;62113;45.624;11.700;2024-01-25T13:26:58;17.10;46.50
63013;DHT22;62113;45.624;11.700;2024-01-25T13:29:24;17.10;46.30
63013;DHT22;62113;45.624;11.700;2024-01-25T13:31:49;17.10;46.00
63013;DHT22;62113;45.624;11.700;2024-01-25T13:34:15;17.00;46.30
63013;DHT22;62113;45.624;11.700;2024-01-25T13:36:41;17.00;46.30
63013;DHT22;62113;45.624;11.700;2024-01-25T13:39:06;17.10;46.30
63013;DHT22;62113;45.624;11.700;2024-01-25T13:41:32;17.00;46.40
63013;DHT22;62113;45.624;11.700;2024-01-25T13:43:58;17.00;46.60
63013;DHT22;62113;45.624;11.700;2024-01-25T13:46:23;17.00;46.70
63013;DHT22;62113;45.624;11.700;2024-01-25T13:48:49;17.10;46.70
63013;DHT22;62113;45.624;11.700;2024-01-25T13:51:14;17.10;46.70
63013;DHT22;62113;45.624;11.700;2024-01-25T13:53:40;17.10;46.70
63013;DHT22;62113;45.624;11.700;2024-01-25T13:56:06;17.10;46.70
63013;DHT22;62113;45.624;11.700;2024-01-25T13:58:31;17.10;47.10
63013;DHT22;62113;45.624;11.700;2024-01-25T14:00:57;17.10;47.20
63013;DHT22;62113;45.624;11.700;2024-01-25T14:03:22;17.10;47.40
63013;DHT22;62113;45.624;11.700;2024-01-25T14:05:48;17.10;47.50
63013;DHT22;62113;45.624;11.700;2024-01-25T14:08:14;17.10;47.40
63013;DHT22;62113;45.624;11.700;2024-01-25T14:10:39;17.10;47.50
63013;DHT22;62113;45.624;11.700;2024-01-25T14:13:06;17.00;47.60
63013;DHT22;62113;45.624;11.700;2024-01-25T14:15:31;17.00;47.70
63013;DHT22;62113;45.624;11.700;2024-01-25T14:17:57;17.10;47.90
63013;DHT22;62113;45.624;11.700;2024-01-25T14:20:23;17.10;48.00
63013;DHT22;62113;45.624;11.700;2024-01-25T14:22:48;17.00;48.10
63013;DHT22;62113;45.624;11.700;2024-01-25T14:25:14;17.00;48.30
63013;DHT22;62113;45.624;11.700;2024-01-25T14:27:40;17.00;48.20
63013;DHT22;62113;45.624;11.700;2024-01-25T14:30:06;17.00;48.30
63013;DHT22;62113;45.624;11.700;2024-01-25T14:32:32;17.00;48.30
63013;DHT22;62113;45.624;11.700;2024-01-25T14:34:58;17.00;48.40
63013;DHT22;62113;45.624;11.700;2024-01-25T14:37:23;17.00;48.40
63013;DHT22;62113;45.624;11.700;2024-01-25T14:39:49;17.00;48.40
63013;DHT22;62113;45.624;11.700;2024-01-25T14:42:15;17.00;48.50
63013;DHT22;62113;45.624;11.700;2024-01-25T14:44:43;17.00;48.50
63013;DHT22;62113;45.624;11.700;2024-01-25T14:47:08;17.00;48.50
63013;DHT22;62113;45.624;11.700;2024-01-25T14:49:34;17.00;48.60
63013;DHT22;62113;45.624;11.700;2024-01-25T14:52:00;17.00;48.70
63013;DHT22;62113;45.624;11.700;2024-01-25T14:54:26;16.90;48.80
63013;DHT22;62113;45.624;11.700;2024-01-25T14:56:52;16.90;48.80
63013;DHT22;62113;45.624;11.700;2024-01-25T14:59:17;16.90;48.90
63013;DHT22;62113;45.624;11.700;2024-01-25T15:01:46;16.90;49.00
63013;DHT22;62113;45.624;11.700;2024-01-25T15:04:12;16.80;49.10
63013;DHT22;62113;45.624;11.700;2024-01-25T15:06:37;16.80;49.20
63013;DHT22;62113;45.624;11.700;2024-01-25T15:09:03;16.70;49.20
63013;DHT22;62113;45.624;11.700;2024-01-25T15:11:28;16.70;49.30
63013;DHT22;62113;45.624;11.700;2024-01-25T15:13:54;16.70;49.40
63013;DHT22;62113;45.624;11.700;2024-01-25T15:16:19;16.70;49.60
63013;DHT22;62113;45.624;11.700;2024-01-25T15:18:45;16.60;49.60